Time;durP1;ratioP1;P1;durP2;ratioP2;P2;SDS_P1;SDS_P2;PMS_P1;PMS_P2;Temp;Humidity;BMP_temperature;BMP_pressure;BME280_temperature;BME280_humidity;BME280_pressure;Samples;Min_cycle;Max_cycle;Signal;HPM_P1;HPM_P2
2022/04/14 00:00:05;;;;;;;;;23.75;21.00;;;;;13.71;71.90;101744.16;5077948;27;45337;-79
2022/04/14 00:02:31;;;;;;;;;21.25;20.00;;;;;13.69;71.87;101740.53;5074542;27;45387;-79
2022/04/14 00:04:56;;;;;;;;;20.75;18.50;;;;;13.35;71.82;101689.16;5079989;27;45480;-79
2022/04/14 00:07:21;;;;;;;;;23.00;20.00;;;;;13.62;71.62;101751.00;5073294;27;45981;-79
2022/04/14 00:09:47;;;;;;;;;23.75;20.75;;;;;13.39;72.60;101720.28;5073811;28;45379;-79
2022/04/14 00:12:12;;;;;;;;;23.00;19.25;;;;;13.54;72.26;101747.25;5066128;28;45315;-79
2022/04/14 00:14:38;;;;;;;;;22.25;20.75;;;;;13.32;72.20;101724.50;5072946;28;45294;-79
2022/04/14 00:17:03;;;;;;;;;21.25;20.75;;;;;13.38;72.78;101751.22;5064999;28;45361;-79
2022/04/14 00:19:28;;;;;;;;;22.25;20.75;;;;;13.13;72.70;101704.44;5075561;27;45368;-79
2022/04/14 00:21:54;;;;;;;;;23.25;21.00;;;;;13.35;72.98;101750.25;5067835;28;45241;-79
2022/04/14 00:24:19;;;;;;;;;27.50;23.00;;;;;13.10;72.59;101711.44;5074386;28;45431;-79
2022/04/14 00:26:44;;;;;;;;;27.00;22.25;;;;;13.11;72.06;101721.22;5075015;27;45568;-78
2022/04/14 00:29:11;;;;;;;;;22.00;22.00;;;;;13.28;71.95;101751.84;5072957;28;45173;-78
2022/04/14 00:31:36;;;;;;;;;22.50;21.50;;;;;13.23;72.83;101753.41;5064844;28;45227;-79
2022/04/14 00:34:02;;;;;;;;;23.50;22.50;;;;;13.21;72.77;101748.03;5069390;28;45487;-80
2022/04/14 00:36:28;;;;;;;;;25.50;21.50;;;;;13.11;74.55;101747.75;5068686;28;45455;-79
2022/04/14 00:38:54;;;;;;;;;21.75;18.50;;;;;13.01;73.02;101727.09;5068557;28;45621;-79
2022/04/14 00:41:20;;;;;;;;;21.50;18.00;;;;;12.84;72.46;101692.13;5061096;28;45382;-78
2022/04/14 00:43:51;;;;;;;;;25.25;21.25;;;;;13.12;73.40;101747.78;5062545;28;45982;-79
2022/04/14 00:46:16;;;;;;;;;23.75;22.25;;;;;13.00;72.63;101728.88;5062459;28;45821;-78
2022/04/14 00:48:41;;;;;;;;;24.25;22.00;;;;;12.94;72.95;101731.34;5071632;27;45445;-80
2022/04/14 00:51:07;;;;;;;;;23.75;21.75;;;;;12.83;72.88;101715.09;5072482;28;45744;-79
2022/04/14 00:53:32;;;;;;;;;22.75;22.50;;;;;12.86;74.21;101714.28;5071906;28;46276;-78
2022/04/14 00:55:58;;;;;;;;;23.00;22.25;;;;;12.98;74.13;101743.84;5063440;28;46037;-79
2022/04/14 00:58:23;;;;;;;;;24.75;22.75;;;;;12.78;73.54;101706.09;5070755;28;45221;-79
2022/04/14 01:00:49;;;;;;;;;22.00;20.75;;;;;12.84;73.62;101722.19;5068505;28;45369;-78
2022/04/14 01:03:15;;;;;;;;;20.50;18.00;;;;;12.95;72.81;101744.63;5072173;28;45862;-79
2022/04/14 01:05:42;;;;;;;;;19.75;18.25;;;;;12.73;73.19;101719.22;5080256;27;45244;-79
2022/04/14 01:08:08;;;;;;;;;24.00;22.50;;;;;12.86;74.04;101741.72;5068180;27;45260;-79
2022/04/14 01:10:34;;;;;;;;;23.00;23.00;;;;;12.92;74.11;101755.16;5070948;27;45296;-79
2022/04/14 01:13:00;;;;;;;;;23.00;18.00;;;;;12.92;73.87;101759.59;5061337;28;45236;-78
2022/04/14 01:15:26;;;;;;;;;23.00;19.50;;;;;12.54;74.77;101692.97;5070947;27;45506;-78
2022/04/14 01:17:51;;;;;;;;;20.50;20.50;;;;;12.40;73.80;101668.69;5068372;28;45209;-78
2022/04/14 01:20:18;;;;;;;;;25.50;21.00;;;;;12.91;74.06;101757.75;5071209;28;45536;-78
2022/04/14 01:22:49;;;;;;;;;17.50;16.75;;;;;12.89;73.54;101763.03;5068471;28;45410;-79
2022/04/14 01:25:15;;;;;;;;;21.25;19.50;;;;;12.70;73.64;101728.84;5077596;28;47047;-79
2022/04/14 01:27:40;;;;;;;;;23.25;20.75;;;;;12.63;75.08;101717.16;5070563;28;45468;-80
2022/04/14 01:30:06;;;;;;;;;22.75;18.50;;;;;12.68;75.32;101723.47;5068739;28;45239;-79
2022/04/14 01:32:32;;;;;;;;;16.00;16.00;;;;;12.59;74.54;101707.28;5065039;28;45420;-79
2022/04/14 01:34:57;;;;;;;;;18.50;17.25;;;;;12.71;74.43;101727.97;5067768;28;45547;-79
2022/04/14 01:37:22;;;;;;;;;17.75;15.00;;;;;12.71;74.65;101728.88;5071128;28;45421;-78
2022/04/14 01:39:48;;;;;;;;;16.50;16.25;;;;;12.91;74.40;101755.09;5071818;27;45314;-78
2022/04/14 01:42:13;;;;;;;;;13.50;13.50;;;;;12.90;74.31;101761.28;5064266;28;45310;-78
2022/04/14 01:44:39;;;;;;;;;18.25;17.00;;;;;12.87;74.23;101763.84;5066561;28;45357;-79
2022/04/14 01:47:05;;;;;;;;;23.25;17.75;;;;;12.76;74.68;101742.28;5063436;28;45410;-79
2022/04/14 01:49:30;;;;;;;;;16.25;15.50;;;;;12.74;73.95;101741.34;5073003;28;45318;-78
2022/04/14 01:51:55;;;;;;;;;17.00;14.00;;;;;12.60;74.76;101722.34;5075053;28;45409;-78
2022/04/14 01:54:21;;;;;;;;;16.75;13.75;;;;;12.68;74.60;101727.88;5062198;28;45394;-79
2022/04/14 01:56:46;;;;;;;;;17.50;17.25;;;;;12.46;74.67;101687.47;5064904;28;45319;-78
2022/04/14 01:59:12;;;;;;;;;12.25;12.25;;;;;12.81;75.03;101746.00;5068336;28;45355;-78
2022/04/14 02:01:38;;;;;;;;;16.75;15.00;;;;;12.80;73.94;101744.19;5061434;28;45393;-79
2022/04/14 02:04:05;;;;;;;;;15.75;15.00;;;;;12.64;74.68;101724.25;5067569;28;45356;-79
2022/04/14 02:06:30;;;;;;;;;16.00;14.75;;;;;12.82;75.00;101754.84;5062202;28;45516;-79
2022/04/14 02:08:56;;;;;;;;;16.00;14.50;;;;;12.80;74.81;101754.81;5069674;27;45232;-80
2022/04/14 02:11:21;;;;;;;;;18.50;16.25;;;;;12.80;75.14;101765.44;5062945;28;45985;-78
2022/04/14 02:13:47;;;;;;;;;14.50;13.50;;;;;12.73;74.39;101744.84;5070512;28;45303;-79
2022/04/14 02:16:12;;;;;;;;;15.25;14.50;;;;;12.62;74.36;101736.56;5065380;27;45415;-78
2022/04/14 02:18:38;;;;;;;;;16.50;16.00;;;;;12.67;74.33;101747.31;5070326;27;45458;-79
2022/04/14 02:21:03;;;;;;;;;16.00;15.25;;;;;12.61;74.13;101741.84;5075034;28;45435;-78
2022/04/14 02:23:29;;;;;;;;;16.00;13.50;;;;;12.66;74.11;101750.81;5067868;28;45323;-77
2022/04/14 02:25:54;;;;;;;;;20.50;18.00;;;;;12.64;73.90;101755.19;5064275;27;45336;-78
2022/04/14 02:28:20;;;;;;;;;15.75;15.00;;;;;12.48;74.07;101727.28;5068597;27;45448;-79
2022/04/14 02:30:46;;;;;;;;;15.25;14.00;;;;;12.53;74.73;101739.81;5063955;27;45265;-78
2022/04/14 02:33:11;;;;;;;;;14.50;12.00;;;;;12.57;74.52;101755.84;5066411;28;45332;-78
2022/04/14 02:35:37;;;;;;;;;16.00;15.00;;;;;12.49;74.27;101742.31;5064116;27;45335;-79
2022/04/14 02:38:03;;;;;;;;;16.25;15.50;;;;;12.11;75.05;101680.16;5064167;28;45300;-79
2022/04/14 02:40:28;;;;;;;;;16.00;16.00;;;;;12.27;74.95;101708.94;5063660;28;45902;-78
2022/04/14 02:42:54;;;;;;;;;19.00;16.50;;;;;12.52;74.74;101753.94;5069417;28;46372;-79
2022/04/14 02:45:24;;;;;;;;;18.50;17.25;;;;;12.50;74.28;101752.09;5063784;27;45170;-79
2022/04/14 02:47:50;;;;;;;;;19.50;19.00;;;;;12.07;75.17;101682.72;5068440;28;45341;-79
2022/04/14 02:50:16;;;;;;;;;17.50;17.50;;;;;12.41;75.00;101742.09;5074814;27;45415;-79
2022/04/14 02:52:42;;;;;;;;;16.50;15.25;;;;;12.31;74.69;101729.38;5074283;27;45360;-80
2022/04/14 02:55:08;;;;;;;;;19.00;18.75;;;;;12.44;75.02;101762.53;5059874;27;45347;-79
2022/04/14 02:57:34;;;;;;;;;20.25;17.75;;;;;12.26;73.47;101739.84;5070503;28;45375;-79
2022/04/14 03:00:00;;;;;;;;;18.50;16.75;;;;;12.19;74.58;101735.19;5063372;27;45511;-78
2022/04/14 03:02:25;;;;;;;;;19.00;18.00;;;;;12.36;75.49;101766.66;5070229;27;46685;-79
2022/04/14 03:04:51;;;;;;;;;22.00;19.00;;;;;12.13;74.70;101726.13;5071339;28;45362;-78
2022/04/14 03:07:17;;;;;;;;;20.00;20.00;;;;;12.17;75.98;101744.84;5062956;28;45250;-79
2022/04/14 03:09:42;;;;;;;;;25.75;22.25;;;;;12.09;75.31;101727.78;5069929;28;45264;-79
2022/04/14 03:12:09;;;;;;;;;22.00;20.50;;;;;12.30;75.62;101767.38;5061538;28;47300;-79
2022/04/14 03:14:34;;;;;;;;;28.50;24.25;;;;;12.16;75.15;101740.41;5073010;27;45305;-79
2022/04/14 03:17:00;;;;;;;;;24.75;24.75;;;;;12.29;75.38;101766.47;5063385;28;45382;-79
2022/04/14 03:19:25;;;;;;;;;27.25;25.25;;;;;12.29;74.84;101761.19;5068276;28;45392;-79
2022/04/14 03:21:50;;;;;;;;;29.75;27.75;;;;;12.21;74.70;101753.78;5064084;28;45415;-79
2022/04/14 03:24:16;;;;;;;;;28.75;24.75;;;;;11.83;75.23;101696.00;5067841;28;45917;-79
2022/04/14 03:26:41;;;;;;;;;26.75;24.50;;;;;12.03;75.08;101733.78;5065178;28;45349;-78
2022/04/14 03:29:06;;;;;;;;;25.50;20.25;;;;;11.73;75.38;101677.97;5070204;27;45346;-79
2022/04/14 03:31:32;;;;;;;;;34.25;27.75;;;;;11.84;74.88;101704.84;5064474;28;46388;-79
2022/04/14 03:33:57;;;;;;;;;27.50;25.75;;;;;12.21;75.53;101777.66;5069129;28;45351;-79
2022/04/14 03:36:22;;;;;;;;;28.50;26.00;;;;;11.98;75.16;101743.31;5064047;28;45761;-78
2022/04/14 03:38:48;;;;;;;;;30.25;28.00;;;;;12.20;75.77;101783.81;5067016;28;46107;-78
2022/04/14 03:41:13;;;;;;;;;29.25;27.75;;;;;12.05;74.92;101757.69;5062815;28;46260;-78
2022/04/14 03:43:38;;;;;;;;;31.00;27.50;;;;;12.06;75.20;101762.13;5071267;27;45383;-79
2022/04/14 03:46:04;;;;;;;;;29.00;27.25;;;;;11.97;75.13;101754.78;5061876;28;47629;-79
2022/04/14 03:48:29;;;;;;;;;32.00;29.00;;;;;12.12;75.50;101783.53;5074248;28;46240;-79
2022/04/14 03:50:55;;;;;;;;;28.50;26.50;;;;;11.99;75.38;101761.03;5072950;27;45580;-79
2022/04/14 03:53:21;;;;;;;;;31.50;25.25;;;;;11.68;76.38;101705.16;5074346;27;45302;-79
2022/04/14 03:55:46;;;;;;;;;29.00;28.75;;;;;11.86;75.57;101746.47;5064550;28;45533;-79
2022/04/14 03:58:12;;;;;;;;;29.25;26.25;;;;;12.06;75.37;101781.59;5072571;28;45264;-78
2022/04/14 04:00:38;;;;;;;;;29.75;25.50;;;;;11.81;76.48;101741.81;5061101;28;45241;-78
2022/04/14 04:03:03;;;;;;;;;29.00;28.50;;;;;11.71;75.77;101730.03;5067238;28;45532;-79
2022/04/14 04:05:29;;;;;;;;;35.75;31.50;;;;;11.90;78.18;101775.72;5061525;28;45344;-79
2022/04/14 04:07:54;;;;;;;;;29.00;26.50;;;;;11.88;77.13;101780.06;5067098;28;45811;-80
2022/04/14 04:10:19;;;;;;;;;35.75;31.75;;;;;11.67;76.71;101735.16;5074042;28;45312;-80
2022/04/14 04:12:45;;;;;;;;;30.75;28.00;;;;;11.75;76.77;101752.22;5065476;28;45367;-80
2022/04/14 04:15:11;;;;;;;;;29.00;26.50;;;;;11.58;76.26;101728.69;5072821;28;45377;-80
2022/04/14 04:17:38;;;;;;;;;31.75;28.75;;;;;11.89;75.95;101779.22;5069232;28;45501;-79
2022/04/14 04:20:05;;;;;;;;;26.75;26.75;;;;;11.74;76.21;101774.25;5073170;28;45223;-79
2022/04/14 04:22:30;;;;;;;;;27.75;23.00;;;;;11.86;76.19;101787.97;5071916;27;45441;-78
2022/04/14 04:24:57;;;;;;;;;29.75;28.75;;;;;11.84;76.17;101790.50;5068827;28;45474;-79
2022/04/14 04:27:22;;;;;;;;;31.00;29.50;;;;;11.81;75.51;101785.09;5065963;28;45554;-79
2022/04/14 04:29:48;;;;;;;;;26.75;25.00;;;;;11.83;75.43;101791.38;5068493;28;45244;-79
2022/04/14 04:32:13;;;;;;;;;27.75;25.75;;;;;11.70;75.31;101769.69;5064505;28;45665;-79
2022/04/14 04:34:38;;;;;;;;;30.25;28.00;;;;;11.61;76.26;101765.88;5067829;28;45317;-79
2022/04/14 04:37:04;;;;;;;;;30.25;28.50;;;;;11.80;75.66;101801.84;5063764;28;45494;-79
2022/04/14 04:39:29;;;;;;;;;27.25;26.25;;;;;11.79;75.54;101807.09;5066073;28;46299;-79
2022/04/14 04:41:55;;;;;;;;;28.00;23.00;;;;;11.73;76.15;101801.56;5062650;28;45370;-79
2022/04/14 04:44:20;;;;;;;;;32.25;27.25;;;;;11.46;76.65;101749.44;5065141;28;45357;-79
2022/04/14 04:46:45;;;;;;;;;29.50;27.50;;;;;11.29;75.34;101732.06;5066982;28;46062;-79
2022/04/14 04:49:10;;;;;;;;;27.50;25.25;;;;;11.67;75.75;101796.06;5077596;28;46970;-79
2022/04/14 04:51:36;;;;;;;;;27.25;24.75;;;;;11.48;76.31;101770.66;5078017;28;45448;-80
2022/04/14 04:54:01;;;;;;;;;26.25;24.50;;;;;11.59;75.76;101790.47;5068823;28;45346;-79
2022/04/14 04:56:27;;;;;;;;;27.25;24.25;;;;;11.69;76.05;101810.28;5065681;28;45337;-81
2022/04/14 04:58:52;;;;;;;;;26.25;24.00;;;;;11.67;75.82;101814.59;5070955;27;45403;-81
2022/04/14 05:01:17;;;;;;;;;25.00;24.00;;;;;11.55;75.89;101793.88;5077421;27;45528;-79
2022/04/14 05:03:43;;;;;;;;;28.25;26.25;;;;;11.59;76.22;101806.38;5070672;28;45962;-82
2022/04/14 05:06:08;;;;;;;;;25.00;24.25;;;;;11.63;76.06;101811.84;5067412;27;45363;-82
2022/04/14 05:08:33;;;;;;;;;27.75;23.25;;;;;11.50;75.47;101796.34;5069562;28;45269;-81
2022/04/14 05:10:59;;;;;;;;;20.00;18.50;;;;;11.32;75.71;101774.50;5064815;28;45316;-80
2022/04/14 05:13:24;;;;;;;;;20.25;18.25;;;;;11.31;75.38;101776.22;5068880;27;45199;-82
2022/04/14 05:15:49;;;;;;;;;27.50;23.50;;;;;11.54;76.26;101814.16;5066597;27;45287;-77
2022/04/14 05:18:15;;;;;;;;;27.25;24.25;;;;;11.45;77.27;101811.16;5070895;28;45288;-79
2022/04/14 05:20:42;;;;;;;;;24.25;22.00;;;;;11.33;75.96;101790.44;5066590;27;45335;-82
2022/04/14 05:23:09;;;;;;;;;25.50;23.25;;;;;11.31;75.67;101800.06;5065378;28;45430;-83
2022/04/14 05:25:34;;;;;;;;;24.25;23.00;;;;;11.30;76.80;101794.72;5064906;28;46034;-82
2022/04/14 05:27:59;;;;;;;;;26.25;23.50;;;;;11.46;75.98;101838.56;5067450;28;45701;-85
2022/04/14 05:30:25;;;;;;;;;26.25;24.25;;;;;11.29;76.31;101809.72;5065330;27;45239;-83
2022/04/14 05:32:50;;;;;;;;;27.75;23.25;;;;;11.23;76.00;101804.19;5072080;28;45461;-81
2022/04/14 05:35:16;;;;;;;;;27.75;24.50;;;;;11.15;75.72;101789.75;5071503;27;46675;-80
2022/04/14 05:37:41;;;;;;;;;25.75;25.00;;;;;11.16;76.37;101797.75;5070287;28;46243;-79
2022/04/14 05:40:08;;;;;;;;;23.50;22.00;;;;;11.40;75.68;101841.88;5061692;27;45298;-80
2022/04/14 05:42:34;;;;;;;;;27.25;24.75;;;;;11.40;77.64;101834.84;5067314;28;45295;-82
2022/04/14 05:45:00;;;;;;;;;30.50;24.75;;;;;11.42;76.55;101842.81;5061639;27;45427;-83
2022/04/14 05:47:26;;;;;;;;;26.25;23.50;;;;;11.43;77.09;101842.91;5066259;28;45471;-82
2022/04/14 05:49:52;;;;;;;;;25.75;23.25;;;;;11.36;75.73;101838.19;5076777;28;46471;-84
2022/04/14 05:52:17;;;;;;;;;33.25;25.25;;;;;11.26;76.60;101816.59;5073832;28;45228;-83
2022/04/14 05:54:46;;;;;;;;;24.25;24.00;;;;;11.16;76.47;101802.16;5074431;27;45488;-80
2022/04/14 05:57:13;;;;;;;;;33.00;29.75;;;;;11.42;76.12;101841.06;5069784;28;46771;-79
2022/04/14 05:59:38;;;;;;;;;33.00;30.25;;;;;11.33;76.71;101823.94;5061502;27;45446;-80
2022/04/14 06:02:04;;;;;;;;;28.75;26.25;;;;;11.46;78.41;101857.09;5061380;28;44830;-84
2022/04/14 06:04:29;;;;;;;;;31.00;28.75;;;;;11.31;75.86;101841.50;5084214;27;46104;-83
2022/04/14 06:06:55;;;;;;;;;32.75;29.75;;;;;11.48;75.61;101865.97;5063354;28;45279;-83
2022/04/14 06:09:20;;;;;;;;;44.50;36.00;;;;;11.27;75.08;101832.56;5063799;27;45306;-83
2022/04/14 06:11:45;;;;;;;;;38.50;33.00;;;;;11.25;74.81;101828.06;5060778;28;45523;-80
2022/04/14 06:14:11;;;;;;;;;36.00;29.25;;;;;11.40;75.24;101866.59;5065632;28;45990;-81
2022/04/14 06:16:37;;;;;;;;;39.25;35.00;;;;;11.38;75.77;101848.84;5072465;27;46299;-80
2022/04/14 06:19:03;;;;;;;;;35.25;31.75;;;;;11.63;75.51;101880.69;5061573;28;44899;-79
2022/04/14 06:21:28;;;;;;;;;39.00;35.50;;;;;11.47;76.12;101835.97;5059264;28;45537;-79
2022/04/14 06:23:55;;;;;;;;;44.50;35.25;;;;;11.60;76.70;101859.41;5063157;28;45266;-79
2022/04/14 06:26:21;;;;;;;;;43.50;35.00;;;;;11.70;76.10;101859.75;5058568;28;45528;-86
2022/04/14 06:28:47;;;;;;;;;40.00;35.50;;;;;11.43;77.03;101807.59;5061402;28;45297;-79
2022/04/14 06:31:12;;;;;;;;;40.00;34.25;;;;;11.64;74.53;101828.63;5059848;28;45426;-79
2022/04/14 06:33:38;;;;;;;;;34.00;33.25;;;;;11.78;74.23;101845.03;5064337;28;45392;-81
2022/04/14 06:36:04;;;;;;;;;39.00;33.75;;;;;12.04;77.17;101885.72;5070876;28;47097;-78
2022/04/14 06:38:30;;;;;;;;;40.25;34.75;;;;;11.91;76.16;101855.25;5068923;28;45461;-86
2022/04/14 06:40:55;;;;;;;;;43.50;35.00;;;;;12.11;77.07;101878.91;5057442;28;45270;-81
2022/04/14 06:43:21;;;;;;;;;35.25;33.00;;;;;11.92;74.91;101841.16;5062540;28;45605;-81
2022/04/14 06:45:47;;;;;;;;;38.50;34.25;;;;;12.19;73.78;101885.41;5056852;28;45607;-80
2022/04/14 06:48:13;;;;;;;;;34.00;32.50;;;;;12.10;75.52;101867.44;5061675;28;45293;-83
2022/04/14 06:50:40;;;;;;;;;37.75;32.00;;;;;12.34;74.73;101898.28;5074009;28;45442;-80
2022/04/14 06:53:05;;;;;;;;;33.25;30.25;;;;;12.25;76.52;101875.91;5069566;28;47430;-82
2022/04/14 06:55:32;;;;;;;;;36.75;33.00;;;;;12.33;75.82;101876.16;5062466;27;46313;-83
2022/04/14 06:57:58;;;;;;;;;35.00;31.25;;;;;12.19;74.21;101841.22;5077763;28;45814;-80
2022/04/14 07:00:23;;;;;;;;;36.75;32.75;;;;;12.54;74.08;101879.53;5064958;27;45448;-79
2022/04/14 07:02:52;;;;;;;;;35.25;33.25;;;;;12.64;74.54;101887.81;5067945;28;45212;-82
2022/04/14 07:05:19;;;;;;;;;34.00;31.50;;;;;12.47;75.19;101853.66;5080159;28;45410;-74
2022/04/14 07:07:44;;;;;;;;;37.00;32.00;;;;;12.84;74.34;101891.13;5074634;27;45524;-81
2022/04/14 07:10:12;;;;;;;;;33.25;32.00;;;;;13.01;74.42;101891.66;5063319;28;45356;-80
2022/04/14 07:12:38;;;;;;;;;30.75;29.75;;;;;13.08;74.11;101867.09;5064891;28;46291;-76
2022/04/14 07:15:04;;;;;;;;;36.00;32.25;;;;;13.35;73.51;101885.69;5069095;27;47131;-76
2022/04/14 07:17:29;;;;;;;;;44.25;37.50;;;;;13.61;73.08;101892.69;5067569;28;45245;-79
2022/04/14 07:19:55;;;;;;;;;32.50;29.50;;;;;13.57;73.10;101863.31;5079354;28;45610;-79
2022/04/14 07:22:20;;;;;;;;;38.50;33.50;;;;;13.93;72.21;101897.13;5069803;28;46563;-78
2022/04/14 07:24:47;;;;;;;;;35.00;33.50;;;;;13.86;72.81;101845.53;5069704;28;45362;-79
2022/04/14 07:27:13;;;;;;;;;36.50;32.50;;;;;14.34;72.33;101906.25;5065626;28;45315;-79
2022/04/14 07:29:38;;;;;;;;;35.00;31.25;;;;;14.54;71.16;101904.13;5069069;27;45232;-79
2022/04/14 07:32:04;;;;;;;;;31.00;27.75;;;;;14.72;70.23;101898.34;5064134;28;45390;-79
2022/04/14 07:34:29;;;;;;;;;36.75;32.75;;;;;14.68;70.13;101852.16;5067688;27;46316;-79
2022/04/14 07:36:54;;;;;;;;;33.00;30.25;;;;;15.18;69.84;101905.69;5065077;28;45294;-78
2022/04/14 07:39:20;;;;;;;;;35.25;31.50;;;;;15.30;68.95;101893.53;5064801;28;45368;-78
2022/04/14 07:41:45;;;;;;;;;41.00;33.50;;;;;15.55;68.28;101911.84;5061504;28;45936;-79
2022/04/14 07:44:11;;;;;;;;;33.50;32.00;;;;;15.67;67.01;101914.75;5069974;28;45420;-79
2022/04/14 07:46:38;;;;;;;;;33.50;30.50;;;;;15.84;67.71;101914.25;5076214;28;45326;-78
2022/04/14 07:49:04;;;;;;;;;39.25;33.75;;;;;16.02;66.96;101911.97;5070928;28;45280;-79
2022/04/14 07:51:29;;;;;;;;;32.00;30.50;;;;;16.11;66.56;101893.47;5071115;28;45612;-78
2022/04/14 07:53:55;;;;;;;;;37.25;33.00;;;;;16.35;67.46;101881.44;5070690;27;45215;-78
2022/04/14 07:56:22;;;;;;;;;33.75;31.00;;;;;16.71;67.23;101905.22;5067315;28;45758;-79
2022/04/14 07:58:48;;;;;;;;;36.75;32.50;;;;;16.76;65.52;101890.22;5070663;27;45367;-78
2022/04/14 08:01:13;;;;;;;;;37.50;33.50;;;;;16.90;65.08;101889.53;5061507;28;45228;-79
2022/04/14 08:03:39;;;;;;;;;36.25;30.75;;;;;17.16;66.11;101909.53;5070502;27;46036;-78
2022/04/14 08:06:05;;;;;;;;;36.50;32.25;;;;;17.10;63.26;101866.69;5078733;27;45337;-78
2022/04/14 08:08:32;;;;;;;;;41.75;33.00;;;;;17.46;62.81;101900.16;5067720;28;45418;-78
2022/04/14 08:11:02;;;;;;;;;36.50;32.50;;;;;17.40;63.12;101868.91;5068468;28;45432;-79
2022/04/14 08:13:30;;;;;;;;;44.50;35.50;;;;;17.47;63.56;101868.97;5067807;28;46092;-78
2022/04/14 08:16:01;;;;;;;;;40.50;35.00;;;;;17.82;63.59;101920.28;5073512;28;45345;-78
2022/04/14 08:18:26;;;;;;;;;35.33;32.67;;;;;17.72;63.92;101873.75;5066966;27;45336;-78
2022/04/14 08:20:52;;;;;;;;;37.00;31.75;;;;;18.04;60.29;101898.25;5066543;27;45442;-79
2022/04/14 08:23:17;;;;;;;;;31.33;28.67;;;;;18.28;63.13;101899.38;5069928;28;46017;-78
2022/04/14 08:25:43;;;;;;;;;32.33;29.00;;;;;18.44;61.82;101897.75;5066897;27;45583;-79
2022/04/14 08:28:08;;;;;;;;;33.00;29.33;;;;;18.69;60.07;101899.78;5066036;28;45234;-78
2022/04/14 08:30:35;;;;;;;;;28.00;27.33;;;;;19.03;59.91;101910.78;5074010;28;45287;-78
2022/04/14 08:33:05;;;;;;;;;27.67;27.00;;;;;19.33;59.67;101909.22;5066947;27;45318;-78
2022/04/14 08:35:32;;;;;;;;;25.67;24.00;;;;;19.33;56.57;101883.28;5068529;28;45285;-78
2022/04/14 08:37:57;;;;;;;;;24.00;23.67;;;;;19.47;54.21;101895.88;5064770;28;45379;-78
2022/04/14 08:40:23;;;;;;;;;27.33;24.33;;;;;19.86;56.96;101901.44;5065187;28;45269;-79
2022/04/14 08:43:06;;;;;;;;;24.67;22.33;;;;;20.22;59.05;101910.50;5069435;28;45197;-79
2022/04/14 08:45:33;;;;;;;;;26.67;22.33;;;;;20.54;56.02;101909.69;5060099;28;45244;-78
2022/04/14 08:48:00;;;;;;;;;24.00;22.00;;;;;20.73;55.19;101916.84;5070594;28;45151;-78
2022/04/14 08:50:27;;;;;;;;;23.00;21.00;;;;;20.50;53.09;101859.50;5075909;28;46303;-79
2022/04/14 08:52:52;;;;;;;;;27.67;21.67;;;;;20.92;55.26;101919.53;5076113;28;47061;-79
2022/04/14 08:55:18;;;;;;;;;30.33;28.00;;;;;20.82;54.00;101889.09;5060845;27;45335;-81
2022/04/14 08:57:44;;;;;;;;;25.67;23.00;;;;;21.00;51.13;101906.97;5073149;28;45445;-81
2022/04/14 09:00:12;;;;;;;;;26.00;22.67;;;;;21.15;52.12;101915.03;5062148;27;45260;-82
2022/04/14 09:02:39;;;;;;;;;23.00;22.00;;;;;21.34;54.79;101905.16;5065335;28;45265;-79
2022/04/14 09:05:06;;;;;;;;;24.00;21.33;;;;;21.63;49.85;101920.34;5071884;28;45302;-80
2022/04/14 09:07:33;;;;;;;;;22.00;22.00;;;;;21.66;49.30;101886.22;5064171;28;45376;-79
2022/04/14 09:09:58;;;;;;;;;21.33;19.00;;;;;22.10;48.55;101903.97;5070718;28;45367;-81
2022/04/14 09:12:24;;;;;;;;;23.33;23.00;;;;;22.34;53.37;101894.84;5065411;28;46429;-79
2022/04/14 09:14:49;;;;;;;;;23.00;20.33;;;;;22.27;53.21;101866.19;5072370;27;45308;-79
2022/04/14 09:17:15;;;;;;;;;28.33;21.67;;;;;22.59;50.86;101872.22;5065255;28;45502;-80
2022/04/14 09:19:44;;;;;;;;;20.00;16.33;;;;;22.99;50.18;101908.75;5067668;28;46665;-81
2022/04/14 09:22:11;;;;;;;;;24.00;20.67;;;;;23.24;49.75;101906.66;5064437;28;46256;-80
2022/04/14 09:24:47;;;;;;;;;19.67;19.00;;;;;23.46;51.50;101911.84;5067988;28;45446;-80
2022/04/14 09:27:34;;;;;;;;;21.67;19.00;;;;;23.62;44.17;101913.47;5066087;28;45467;-81
2022/04/14 09:30:04;;;;;;;;;17.67;14.33;;;;;23.72;43.88;101899.88;5072339;27;45889;-80
2022/04/14 09:32:34;;;;;;;;;14.00;12.00;;;;;23.92;44.24;101907.72;5070700;28;47116;-81
2022/04/14 09:35:06;;;;;;;;;17.33;15.67;;;;;24.11;43.82;101910.16;5075893;27;45330;-80
2022/04/14 09:37:33;;;;;;;;;16.00;14.00;;;;;24.34;42.84;101893.59;5068693;28;45372;-82
2022/04/14 09:40:08;;;;;;;;;12.67;10.67;;;;;24.62;45.93;101893.19;5068300;28;45512;-83
2022/04/14 09:42:36;;;;;;;;;21.33;17.33;;;;;24.76;46.06;101891.16;5072414;28;47406;-80
2022/04/14 09:45:20;;;;;;;;;15.50;12.75;;;;;24.83;47.91;101894.63;5063358;27;45314;-80
2022/04/14 09:47:48;;;;;;;;;16.00;13.33;;;;;24.72;46.40;101854.25;5068276;28;45343;-82
2022/04/14 09:50:26;;;;;;;;;14.00;10.00;;;;;25.05;46.55;101894.25;5076809;28;46114;-81
2022/04/14 09:52:56;;;;;;;;;14.25;12.50;;;;;24.82;41.95;101860.41;5075989;27;45462;-85
2022/04/14 09:55:21;;;;;;;;;16.00;13.00;;;;;24.87;42.42;101879.22;5060172;27;45435;-83
2022/04/14 09:58:04;;;;;;;;;12.50;12.50;;;;;25.05;45.21;101902.38;5073243;28;45279;-82
2022/04/14 10:00:45;;;;;;;;;14.00;12.25;;;;;24.98;43.17;101905.19;5059226;28;45496;-81
2022/04/14 10:03:20;;;;;;;;;15.75;12.50;;;;;25.18;43.16;101903.97;5065810;28;45297;-82
2022/04/14 10:05:50;;;;;;;;;13.75;12.25;;;;;25.31;42.68;101897.38;5069778;28;45343;-84
2022/04/14 10:08:16;;;;;;;;;15.00;15.00;;;;;25.50;42.94;101899.72;5072327;28;45204;-85
2022/04/14 10:10:44;;;;;;;;;18.00;18.00;;;;;25.57;39.13;101899.59;5068605;28;45319;-77
2022/04/14 10:13:12;;;;;;;;;19.25;18.00;;;;;25.50;39.88;101862.72;5066689;28;47417;-74
2022/04/14 10:15:43;;;;;;;;;14.00;12.50;;;;;25.85;42.13;101886.38;5067053;27;45373;-75
2022/04/14 10:18:11;;;;;;;;;7.25;7.25;;;;;25.92;40.25;101881.72;5064973;28;45316;-76
2022/04/14 10:20:41;;;;;;;;;9.00;8.00;;;;;25.93;40.15;101879.88;5059302;27;45301;-75
2022/04/14 10:23:08;;;;;;;;;11.25;10.25;;;;;26.13;41.60;101896.56;5064014;28;45439;-75
2022/04/14 10:25:36;;;;;;;;;9.00;9.00;;;;;26.01;36.41;101851.69;5069279;28;45757;-75
2022/04/14 10:28:03;;;;;;;;;11.00;10.00;;;;;26.08;37.79;101836.19;5061968;28;45462;-75
2022/04/14 10:30:29;;;;;;;;;9.50;9.50;;;;;26.24;35.64;101840.31;5080436;27;47267;-75
2022/04/14 10:32:56;;;;;;;;;13.25;11.75;;;;;26.50;37.01;101863.19;5062798;28;45344;-75
2022/04/14 10:35:26;;;;;;;;;9.00;9.00;;;;;26.60;37.74;101848.47;5071409;28;45838;-76
2022/04/14 10:38:17;;;;;;;;;10.00;9.50;;;;;27.05;40.17;101888.88;5067816;28;45355;-76
2022/04/14 10:41:12;;;;;;;;;13.25;11.75;;;;;27.15;37.56;101879.56;5057773;28;45308;-75
2022/04/14 10:43:41;;;;;;;;;13.50;11.00;;;;;27.32;35.96;101880.97;5070185;28;45442;-76
2022/04/14 10:46:06;;;;;;;;;11.75;11.75;;;;;27.41;36.00;101865.28;5058424;28;45728;-75
2022/04/14 10:48:39;;;;;;;;;13.50;12.50;;;;;27.79;34.46;101881.41;5070625;28;45931;-75
2022/04/14 10:51:24;;;;;;;;;12.50;10.50;;;;;27.75;39.73;101858.84;5077173;28;45282;-75
2022/04/14 10:54:05;;;;;;;;;12.75;10.75;;;;;27.53;37.58;101849.56;5066423;28;47184;-75
2022/04/14 10:56:33;;;;;;;;;9.20;9.20;;;;;27.59;37.99;101882.88;5065577;28;45245;-75
2022/04/14 10:59:00;;;;;;;;;13.00;10.50;;;;;27.27;38.79;101880.19;5072845;28;45359;-75
2022/04/14 11:01:45;;;;;;;;;8.00;8.00;;;;;26.90;36.46;101878.47;5075542;28;45524;-75
2022/04/14 11:04:37;;;;;;;;;6.00;6.00;;;;;26.57;37.46;101867.53;5068255;28;45421;-76
2022/04/14 11:07:16;;;;;;;;;10.00;7.00;;;;;26.68;36.65;101887.16;5071384;27;45600;-76